createdAt,value
2019-01-15T00:01:13.646Z,96.20
2019-01-15T00:03:45.991Z,96.20
2019-01-15T00:06:15.387Z,96.10
2019-01-15T00:08:45.012Z,96.00
2019-01-15T00:11:14.555Z,95.90
2019-01-15T00:13:43.933Z,95.90
2019-01-15T00:16:13.310Z,95.80
2019-01-15T00:18:42.676Z,95.80
2019-01-15T00:21:12.183Z,95.80
2019-01-15T00:23:41.543Z,95.90
2019-01-15T00:26:10.920Z,95.80
2019-01-15T00:28:40.298Z,95.90
2019-01-15T00:31:09.964Z,96.00
2019-01-15T00:33:39.335Z,96.10
2019-01-15T00:36:08.734Z,96.10
2019-01-15T00:38:38.099Z,96.20
2019-01-15T00:41:07.940Z,96.20
2019-01-15T00:43:37.672Z,96.30
2019-01-15T00:46:07.485Z,96.20
2019-01-15T00:48:36.858Z,96.20
2019-01-15T00:51:06.260Z,96.20
2019-01-15T00:53:35.630Z,96.20
2019-01-15T00:56:05.608Z,96.20
2019-01-15T00:58:34.981Z,96.10
2019-01-15T01:01:05.393Z,96.20
2019-01-15T01:03:34.790Z,96.10
2019-01-15T01:06:04.288Z,96.10
2019-01-15T01:08:33.675Z,96.10
2019-01-15T01:11:07.310Z,96.10
2019-01-15T01:13:55.996Z,96.10
2019-01-15T01:16:25.384Z,96.10
2019-01-15T01:18:55.120Z,96.10
2019-01-15T01:21:24.498Z,96.10
2019-01-15T01:23:55.671Z,96.10
2019-01-15T01:26:25.300Z,96.10
2019-01-15T01:28:54.691Z,96.10
2019-01-15T01:31:24.323Z,96.10
2019-01-15T01:33:53.709Z,96.10
2019-01-15T01:36:23.400Z,96.10
2019-01-15T01:38:53.398Z,96.10
2019-01-15T01:41:22.767Z,96.10
2019-01-15T01:43:52.158Z,96.10
2019-01-15T01:46:21.635Z,96.10
2019-01-15T01:48:51.276Z,96.10
2019-01-15T01:51:20.903Z,96.20
2019-01-15T01:53:52.723Z,96.10
2019-01-15T01:56:22.374Z,96.10
2019-01-15T01:58:53.655Z,96.10
2019-01-15T02:01:23.047Z,96.10
2019-01-15T02:03:52.531Z,96.20
2019-01-15T02:06:21.904Z,96.10
2019-01-15T02:08:51.287Z,96.10
2019-01-15T02:11:20.732Z,96.10
2019-01-15T02:13:51.886Z,96.10
2019-01-15T02:16:21.258Z,96.00
2019-01-15T02:18:50.634Z,96.00
2019-01-15T02:21:20.291Z,96.00
2019-01-15T02:23:49.715Z,95.90
2019-01-15T02:26:19.084Z,95.90
2019-01-15T02:28:48.472Z,96.20
2019-01-15T02:31:19.138Z,95.90
2019-01-15T02:33:48.546Z,95.90
2019-01-15T02:36:17.943Z,95.90
2019-01-15T02:38:47.317Z,95.90
2019-01-15T02:41:16.716Z,95.90
2019-01-15T02:43:46.092Z,95.80
2019-01-15T02:46:15.460Z,96.20
2019-01-15T02:48:44.915Z,95.80
2019-01-15T02:51:14.303Z,95.80
2019-01-15T02:53:43.924Z,95.80
2019-01-15T02:56:13.319Z,95.80
2019-01-15T02:58:42.698Z,95.80
2019-01-15T03:01:12.073Z,95.80
2019-01-15T03:03:41.487Z,95.80
2019-01-15T03:06:12.392Z,95.80
2019-01-15T03:08:41.796Z,96.00
2019-01-15T03:11:11.197Z,95.80
2019-01-15T03:13:40.696Z,95.80
2019-01-15T03:16:10.060Z,95.80
2019-01-15T03:18:39.545Z,95.90
2019-01-15T03:21:08.950Z,95.90
2019-01-15T03:23:38.688Z,96.30
2019-01-15T03:26:08.067Z,95.90
2019-01-15T03:28:38.449Z,95.90
2019-01-15T03:31:07.807Z,95.90
2019-01-15T03:33:37.423Z,95.80
2019-01-15T03:36:06.827Z,95.90
2019-01-15T03:38:36.710Z,95.80
2019-01-15T03:41:08.955Z,95.80
2019-01-15T03:43:38.326Z,95.80
2019-01-15T03:46:07.739Z,95.80
2019-01-15T03:48:37.117Z,95.80
2019-01-15T03:51:06.923Z,95.70
2019-01-15T03:53:36.306Z,95.60
2019-01-15T03:56:05.960Z,95.60
2019-01-15T03:58:35.327Z,95.60
2019-01-15T04:01:05.042Z,95.50
2019-01-15T04:03:34.422Z,95.80
2019-01-15T04:06:04.022Z,95.50
2019-01-15T04:08:33.703Z,95.50
2019-01-15T04:11:03.092Z,95.40
2019-01-15T04:13:32.510Z,95.50
2019-01-15T04:16:01.880Z,95.50
2019-01-15T04:18:31.256Z,95.40
2019-01-15T04:21:00.884Z,95.50
2019-01-15T04:23:30.331Z,95.60
2019-01-15T04:25:59.728Z,95.70
2019-01-15T04:28:29.502Z,95.70
2019-01-15T04:30:58.906Z,95.80
2019-01-15T04:33:28.574Z,95.80
2019-01-15T04:35:57.959Z,95.80
2019-01-15T04:38:28.145Z,95.80
2019-01-15T04:40:57.621Z,95.80
2019-01-15T04:43:26.991Z,95.70
2019-01-15T04:45:56.383Z,95.90
2019-01-15T04:48:25.846Z,95.80
2019-01-15T04:50:55.311Z,95.80
2019-01-15T04:53:24.758Z,95.90
2019-01-15T04:55:54.148Z,95.90
2019-01-15T04:58:23.519Z,95.90
2019-01-15T05:00:52.927Z,95.90
2019-01-15T05:03:23.988Z,95.90
2019-01-15T05:05:54.161Z,95.90
2019-01-15T05:08:23.548Z,95.70
2019-01-15T05:10:52.928Z,95.80
2019-01-15T05:13:27.384Z,95.70
2019-01-15T05:15:53.479Z,95.70
2019-01-15T05:18:23.089Z,95.90
2019-01-15T05:20:52.840Z,95.80
2019-01-15T05:23:22.233Z,95.80
2019-01-15T05:25:51.635Z,95.90
2019-01-15T05:28:21.002Z,96.00
2019-01-15T05:30:50.613Z,96.00
2019-01-15T05:33:20.004Z,96.10
2019-01-15T05:35:49.400Z,96.10
2019-01-15T05:38:19.599Z,96.10
2019-01-15T05:40:49.101Z,96.00
2019-01-15T05:43:18.856Z,96.00
2019-01-15T05:45:49.112Z,96.00
2019-01-15T05:48:18.485Z,96.00
2019-01-15T05:50:55.467Z,96.00
2019-01-15T05:53:24.854Z,96.00
2019-01-15T05:55:54.225Z,96.00
2019-01-15T05:58:23.615Z,95.90
2019-01-15T06:00:53.009Z,95.90
2019-01-15T06:03:22.434Z,95.90
2019-01-15T06:05:52.254Z,95.90
2019-01-15T06:08:21.723Z,95.90
2019-01-15T06:10:51.407Z,95.90
2019-01-15T06:13:24.089Z,95.80
2019-01-15T06:15:53.791Z,95.80
2019-01-15T06:18:23.198Z,95.70
2019-01-15T06:20:52.560Z,95.70
2019-01-15T06:23:22.023Z,95.70
2019-01-15T06:25:51.447Z,95.70
2019-01-15T06:28:20.847Z,95.60
2019-01-15T06:30:50.295Z,95.60
2019-01-15T06:33:19.689Z,95.80
2019-01-15T06:35:49.134Z,95.60
2019-01-15T06:38:18.758Z,95.70
2019-01-15T06:40:48.609Z,95.70
2019-01-15T06:43:17.997Z,95.70
2019-01-15T06:45:47.336Z,95.70
2019-01-15T06:48:17.127Z,95.80
2019-01-15T06:50:47.441Z,95.80
2019-01-15T06:53:17.123Z,95.80
2019-01-15T06:55:46.732Z,95.70
2019-01-15T06:58:16.184Z,95.70
2019-01-15T07:00:45.562Z,95.70
2019-01-15T07:03:15.015Z,95.70
2019-01-15T07:05:44.622Z,95.60
2019-01-15T07:08:15.854Z,95.60
2019-01-15T07:10:45.301Z,95.70
2019-01-15T07:13:14.683Z,95.60
2019-01-15T07:15:45.903Z,95.60
2019-01-15T07:18:15.556Z,95.60
2019-01-15T07:20:45.377Z,95.70
2019-01-15T07:23:14.802Z,95.60
2019-01-15T07:25:44.464Z,95.60
2019-01-15T07:28:13.897Z,95.50
2019-01-15T07:31:08.696Z,95.50
2019-01-15T07:33:38.083Z,95.60
2019-01-15T07:36:07.462Z,95.60
2019-01-15T07:38:36.872Z,95.50
2019-01-15T07:41:06.251Z,95.60
2019-01-15T07:43:35.642Z,95.60
2019-01-15T07:46:05.403Z,95.60
2019-01-15T07:48:34.785Z,95.60
2019-01-15T07:51:04.169Z,95.60
2019-01-15T07:53:33.542Z,95.60
2019-01-15T07:56:02.916Z,95.60
2019-01-15T07:58:32.589Z,95.60
2019-01-15T08:01:02.218Z,95.60
2019-01-15T08:03:31.587Z,95.60
2019-01-15T08:06:03.597Z,95.60
2019-01-15T08:08:33.288Z,95.70
2019-01-15T08:11:02.674Z,95.70
2019-01-15T08:13:32.040Z,95.70
2019-01-15T08:16:01.417Z,95.70
2019-01-15T08:18:30.791Z,95.70
2019-01-15T08:21:00.197Z,96.00
2019-01-15T08:23:29.605Z,95.80
2019-01-15T08:25:58.953Z,95.80
2019-01-15T08:28:28.343Z,95.70
2019-01-15T08:30:57.753Z,95.70
2019-01-15T08:33:27.117Z,95.60
2019-01-15T08:35:56.755Z,95.70
2019-01-15T08:38:26.112Z,95.60
2019-01-15T08:40:55.505Z,95.70
2019-01-15T08:43:24.890Z,95.60
2019-01-15T08:45:55.372Z,95.80
2019-01-15T08:48:24.889Z,95.60
2019-01-15T08:50:54.590Z,95.60
2019-01-15T08:53:24.326Z,95.70
2019-01-15T08:55:55.482Z,95.60
2019-01-15T08:58:25.218Z,95.60
2019-01-15T09:00:54.608Z,95.20
2019-01-15T09:03:24.243Z,95.20
2019-01-15T09:05:53.638Z,95.00
2019-01-15T09:08:23.087Z,94.60
2019-01-15T09:10:52.548Z,94.40
2019-01-15T09:13:22.245Z,94.30
2019-01-15T09:15:51.638Z,94.30
2019-01-15T09:18:21.179Z,94.30
2019-01-15T09:20:50.570Z,94.40
2019-01-15T09:23:20.281Z,94.00
2019-01-15T09:25:49.740Z,93.80
2019-01-15T09:28:19.217Z,93.70
2019-01-15T09:30:48.694Z,93.40
2019-01-15T09:33:18.310Z,93.00
2019-01-15T09:35:47.714Z,92.70
2019-01-15T09:38:17.376Z,92.90
2019-01-15T09:40:47.020Z,92.90
2019-01-15T09:43:16.745Z,92.90
2019-01-15T09:45:46.120Z,92.90
2019-01-15T09:48:16.530Z,92.80
2019-01-15T09:50:45.905Z,92.70
2019-01-15T09:53:15.506Z,92.90
2019-01-15T09:55:44.913Z,92.80
2019-01-15T09:58:19.445Z,92.70
2019-01-15T10:00:48.491Z,92.70
2019-01-15T10:03:17.902Z,92.90
2019-01-15T10:05:47.614Z,93.00
2019-01-15T10:08:17.319Z,93.30
2019-01-15T10:10:46.689Z,93.50
2019-01-15T10:13:16.365Z,93.10
2019-01-15T10:15:45.814Z,92.90
2019-01-15T10:18:15.211Z,92.30
2019-01-15T10:20:44.587Z,92.10
2019-01-15T10:23:18.718Z,91.70
2019-01-15T10:25:48.924Z,91.60
2019-01-15T10:28:18.315Z,91.30
2019-01-15T10:31:00.851Z,91.40
2019-01-15T10:33:40.802Z,90.90
2019-01-15T10:36:08.529Z,90.90
2019-01-15T10:38:37.969Z,90.90
2019-01-15T10:41:07.819Z,90.70
2019-01-15T10:43:37.649Z,90.70
2019-01-15T10:46:07.060Z,90.60
2019-01-15T10:48:37.679Z,90.60
2019-01-15T10:51:07.148Z,90.50
2019-01-15T10:53:36.544Z,90.50
2019-01-15T10:56:06.027Z,90.20
2019-01-15T10:58:35.392Z,90.30
2019-01-15T11:01:05.693Z,90.40
2019-01-15T11:03:35.076Z,90.30
2019-01-15T11:06:06.605Z,89.80
2019-01-15T11:08:35.992Z,90.20
2019-01-15T11:11:05.811Z,89.90
2019-01-15T11:13:35.273Z,89.90
2019-01-15T11:16:04.811Z,90.00
2019-01-15T11:18:39.528Z,90.10
2019-01-15T11:21:09.062Z,89.90
2019-01-15T11:23:38.545Z,89.50
2019-01-15T11:26:07.920Z,89.90
2019-01-15T11:28:37.333Z,89.80
2019-01-15T11:31:07.114Z,89.80
2019-01-15T11:33:36.527Z,90.00
2019-01-15T11:36:06.220Z,90.20
2019-01-15T11:38:37.938Z,90.10
2019-01-15T11:41:08.489Z,90.10
2019-01-15T11:43:39.007Z,90.10
2019-01-15T11:46:08.539Z,90.30
2019-01-15T11:48:37.933Z,90.10
2019-01-15T11:51:08.296Z,90.30
2019-01-15T11:53:37.686Z,89.90
2019-01-15T11:56:07.485Z,89.60
2019-01-15T11:58:37.138Z,89.90
2019-01-15T12:01:08.252Z,89.30
2019-01-15T12:03:42.171Z,89.00
2019-01-15T12:06:19.132Z,88.70
2019-01-15T12:08:52.565Z,88.80
2019-01-15T12:11:26.551Z,88.70
2019-01-15T12:13:57.868Z,88.70
2019-01-15T12:16:37.754Z,88.30
2019-01-15T12:19:11.529Z,88.10
2019-01-15T12:21:45.603Z,87.90
2019-01-15T12:24:28.725Z,88.10
2019-01-15T12:27:18.027Z,87.90
2019-01-15T12:30:05.212Z,87.80
2019-01-15T12:32:39.498Z,88.60
2019-01-15T12:35:22.559Z,87.90
2019-01-15T12:38:09.439Z,88.20
2019-01-15T12:40:55.627Z,88.60
2019-01-15T12:43:30.630Z,88.10
2019-01-15T12:46:20.136Z,88.30
2019-01-15T12:48:53.770Z,88.30
2019-01-15T12:51:24.859Z,88.90
2019-01-15T12:54:11.784Z,89.00
2019-01-15T12:56:51.907Z,88.50
2019-01-15T12:59:25.625Z,88.60
2019-01-15T13:02:08.729Z,88.70
2019-01-15T13:04:49.571Z,89.20
2019-01-15T13:07:20.706Z,89.00
2019-01-15T13:09:54.754Z,89.30
2019-01-15T13:12:34.677Z,89.50
2019-01-15T13:15:09.614Z,88.60
2019-01-15T13:17:46.376Z,88.40
2019-01-15T13:20:29.756Z,88.90
2019-01-15T13:23:07.610Z,88.90
2019-01-15T13:25:50.778Z,89.20
2019-01-15T13:28:21.926Z,89.20
2019-01-15T13:30:54.767Z,89.20
2019-01-15T13:33:44.757Z,89.20
2019-01-15T13:36:31.141Z,89.40
2019-01-15T13:39:11.102Z,89.50
2019-01-15T13:41:44.997Z,89.30
2019-01-15T13:44:34.244Z,89.70
2019-01-15T13:47:05.346Z,89.50
2019-01-15T13:49:39.428Z,90.00
2019-01-15T13:52:16.835Z,90.00
2019-01-15T13:55:02.657Z,90.10
2019-01-15T13:57:45.713Z,89.80
2019-01-15T14:00:25.154Z,89.70
2019-01-15T14:02:59.352Z,90.00
2019-01-15T14:05:33.073Z,89.80
2019-01-15T14:08:06.822Z,90.00
2019-01-15T14:10:37.972Z,90.10
2019-01-15T14:13:18.140Z,89.70
2019-01-15T14:16:01.479Z,90.00
2019-01-15T14:18:48.642Z,90.00
2019-01-15T14:21:22.983Z,90.20
2019-01-15T14:23:54.000Z,90.30
2019-01-15T14:26:39.937Z,90.30
2019-01-15T14:29:19.939Z,90.30
2019-01-15T14:31:56.803Z,90.40
2019-01-15T14:34:40.031Z,90.50
2019-01-15T14:37:27.962Z,90.50
2019-01-15T14:40:01.957Z,90.70
2019-01-15T14:42:35.696Z,90.70
2019-01-15T14:45:10.728Z,90.80
2019-01-15T14:47:45.824Z,90.90
2019-01-15T14:50:32.155Z,90.90
2019-01-15T14:53:29.014Z,91.00
2019-01-15T14:56:16.168Z,91.10
2019-01-15T14:58:49.832Z,91.20
2019-01-15T15:01:37.243Z,91.20
2019-01-15T15:04:10.916Z,91.30
2019-01-15T15:06:42.232Z,91.40
2019-01-15T15:09:31.781Z,91.40
2019-01-15T15:12:02.818Z,91.60
2019-01-15T15:14:36.522Z,91.70
2019-01-15T15:17:10.755Z,91.80
2019-01-15T15:19:47.523Z,91.80
2019-01-15T15:22:18.525Z,91.90
2019-01-15T15:25:02.617Z,92.00
2019-01-15T15:27:45.453Z,92.00
2019-01-15T15:30:25.005Z,92.10
2019-01-15T15:33:12.154Z,92.20
2019-01-15T15:35:45.608Z,92.20
2019-01-15T15:38:32.998Z,92.20
2019-01-15T15:41:04.110Z,92.10
2019-01-15T15:43:40.734Z,92.10
2019-01-15T15:46:15.112Z,92.20
2019-01-15T15:48:59.202Z,92.20
2019-01-15T15:51:32.058Z,92.30
2019-01-15T15:54:19.857Z,92.20
2019-01-15T15:57:02.838Z,92.20
2019-01-15T15:59:39.679Z,92.20
2019-01-15T16:02:16.455Z,92.20
2019-01-15T16:05:02.458Z,92.10
2019-01-15T16:07:39.339Z,92.10
2019-01-15T16:10:19.185Z,92.10
2019-01-15T16:12:52.915Z,92.10
2019-01-15T16:15:35.952Z,92.00
2019-01-15T16:18:23.899Z,92.00
2019-01-15T16:20:57.355Z,92.00
2019-01-15T16:23:28.377Z,92.00
2019-01-15T16:26:03.689Z,92.00
2019-01-15T16:28:50.597Z,92.00
2019-01-15T16:31:37.967Z,92.00
2019-01-15T16:34:11.951Z,92.00
2019-01-15T16:36:42.977Z,92.00
2019-01-15T16:39:19.815Z,92.00
2019-01-15T16:42:06.843Z,92.00
2019-01-15T16:44:49.670Z,92.00
2019-01-15T16:47:20.770Z,92.00
2019-01-15T16:49:51.784Z,92.10
2019-01-15T16:52:28.443Z,92.10
2019-01-15T16:55:15.635Z,92.20
2019-01-15T16:57:55.793Z,92.20
2019-01-15T17:00:33.051Z,92.20
2019-01-15T17:03:04.070Z,92.20
2019-01-15T17:05:37.518Z,92.20
2019-01-15T17:08:17.411Z,92.20
2019-01-15T17:10:50.998Z,92.20
2019-01-15T17:13:27.999Z,92.20
2019-01-15T17:15:59.326Z,92.20
2019-01-15T17:18:44.117Z,92.30
2019-01-15T17:21:15.475Z,92.30
2019-01-15T17:24:04.309Z,92.30
2019-01-15T17:26:50.342Z,92.30
2019-01-15T17:29:30.037Z,92.30
2019-01-15T17:32:03.442Z,92.30
2019-01-15T17:34:34.568Z,92.30
2019-01-15T17:37:21.684Z,92.30
2019-01-15T17:39:55.954Z,92.30
2019-01-15T17:42:26.994Z,92.20
2019-01-15T17:45:14.815Z,92.20
2019-01-15T17:47:46.027Z,92.30
2019-01-15T17:50:33.330Z,92.30
2019-01-15T17:53:04.415Z,92.30
2019-01-15T17:55:41.311Z,92.20
2019-01-15T17:58:15.370Z,92.30
2019-01-15T18:00:49.074Z,92.30
2019-01-15T18:03:20.755Z,92.30
2019-01-15T18:06:08.182Z,92.30
2019-01-15T18:08:58.484Z,92.30
2019-01-15T18:11:31.088Z,92.30
2019-01-15T18:14:17.996Z,92.30
2019-01-15T18:16:51.700Z,92.30
2019-01-15T18:19:25.969Z,92.40
2019-01-15T18:21:57.045Z,92.40
2019-01-15T18:24:33.913Z,92.30
2019-01-15T18:27:05.417Z,92.40
2019-01-15T18:29:36.693Z,92.40
2019-01-15T18:32:13.872Z,92.50
2019-01-15T18:34:47.653Z,92.40
2019-01-15T18:37:21.540Z,92.40
2019-01-15T18:40:08.421Z,92.40
2019-01-15T18:42:39.855Z,92.40
2019-01-15T18:45:28.196Z,92.40
2019-01-15T18:48:05.042Z,92.50
2019-01-15T18:50:44.995Z,92.50
2019-01-15T18:53:21.056Z,92.50
2019-01-15T18:56:07.005Z,92.40
2019-01-15T18:58:46.829Z,92.40
2019-01-15T19:01:26.875Z,92.30
2019-01-15T19:04:15.754Z,92.40
2019-01-15T19:07:01.946Z,92.30
2019-01-15T19:09:33.396Z,92.40
2019-01-15T19:12:22.308Z,92.40
2019-01-15T19:14:54.962Z,92.30
2019-01-15T19:17:44.019Z,92.40
2019-01-15T19:20:15.148Z,92.40
2019-01-15T19:23:02.286Z,92.40
2019-01-15T19:25:41.554Z,92.60
2019-01-15T19:28:18.426Z,92.60
2019-01-15T19:30:49.779Z,92.60
2019-01-15T19:33:23.631Z,92.70
2019-01-15T19:35:54.778Z,92.70
2019-01-15T19:38:31.690Z,92.80
2019-01-15T19:41:02.841Z,92.80
2019-01-15T19:43:42.845Z,92.90
2019-01-15T19:46:15.862Z,92.70
2019-01-15T19:48:49.324Z,92.90
2019-01-15T19:51:36.919Z,92.90
2019-01-15T19:57:22.448Z,93.30
2019-01-15T19:59:53.456Z,93.00
2019-01-15T20:02:33.658Z,93.00
2019-01-15T20:05:13.994Z,93.10
2019-01-15T20:07:53.861Z,93.10
2019-01-15T20:10:25.102Z,93.10
2019-01-15T20:13:01.980Z,93.10
2019-01-15T20:15:38.742Z,93.20
2019-01-15T20:18:21.644Z,93.20
2019-01-15T20:20:55.348Z,93.20
2019-01-15T20:23:28.783Z,93.20
2019-01-15T20:26:15.940Z,93.20
2019-01-15T20:28:53.090Z,93.30
2019-01-15T20:31:24.111Z,93.30
2019-01-15T20:33:55.126Z,93.40
2019-01-15T20:36:28.555Z,93.40
2019-01-15T20:39:02.294Z,93.40
2019-01-15T20:41:35.890Z,93.50
2019-01-15T20:44:06.995Z,93.50
2019-01-15T20:46:40.689Z,93.60
2019-01-15T20:49:11.693Z,93.60
2019-01-15T20:51:46.002Z,93.70
2019-01-15T20:54:22.665Z,93.70
2019-01-15T20:57:05.363Z,93.80
2019-01-15T20:59:36.366Z,93.80
2019-01-15T21:02:13.225Z,93.90
2019-01-15T21:04:49.960Z,93.90
2019-01-15T21:07:27.197Z,93.90
2019-01-15T21:09:58.484Z,94.20
2019-01-15T21:12:29.503Z,94.00
2019-01-15T21:15:12.728Z,94.00
2019-01-15T21:17:43.759Z,94.00
2019-01-15T21:20:15.227Z,94.00
2019-01-15T21:22:49.208Z,94.00
2019-01-15T21:25:29.302Z,94.00
2019-01-15T21:28:09.296Z,93.90
2019-01-15T21:30:56.434Z,93.90
2019-01-15T21:33:30.435Z,93.90
2019-01-15T21:36:01.686Z,93.90
2019-01-15T21:38:38.341Z,94.00
2019-01-15T21:41:25.368Z,93.90
2019-01-15T21:44:08.826Z,93.90
2019-01-15T21:46:43.013Z,93.90
2019-01-15T21:49:14.222Z,93.90
2019-01-15T21:51:51.358Z,94.00
2019-01-15T21:54:25.355Z,94.00
2019-01-15T21:57:14.383Z,93.90
2019-01-15T21:59:57.711Z,94.00
2019-01-15T22:02:37.971Z,93.90
2019-01-15T22:05:20.077Z,93.90
2019-01-15T22:07:53.529Z,93.90
2019-01-15T22:10:24.613Z,93.80
2019-01-15T22:13:13.548Z,93.80
2019-01-15T22:15:47.366Z,93.80
2019-01-15T22:18:27.439Z,93.70
2019-01-15T22:21:01.223Z,93.80
2019-01-15T22:23:32.217Z,93.70
2019-01-15T22:29:01.152Z,93.70
2019-01-15T22:31:47.328Z,93.70
2019-01-15T22:34:24.451Z,93.70
2019-01-15T22:36:58.163Z,93.70
2019-01-15T22:39:29.165Z,93.70
2019-01-15T22:42:05.992Z,93.70
2019-01-15T22:44:45.904Z,93.70
2019-01-15T22:47:33.265Z,93.60
2019-01-15T22:50:22.237Z,93.60
2019-01-15T22:52:56.237Z,93.60
2019-01-15T22:55:27.208Z,93.60
2019-01-15T22:58:01.110Z,93.70
2019-01-15T23:00:55.481Z,93.70
2019-01-15T23:03:26.555Z,93.70
2019-01-15T23:06:00.345Z,93.70
2019-01-15T23:08:49.642Z,93.70
2019-01-15T23:11:23.417Z,93.70
2019-01-15T23:13:56.882Z,93.70
2019-01-15T23:16:27.894Z,93.70
2019-01-15T23:18:58.989Z,93.60
2019-01-15T23:21:30.298Z,93.60
2019-01-15T23:24:13.200Z,93.80
2019-01-15T23:26:46.900Z,93.90
2019-01-15T23:29:34.170Z,93.80
2019-01-15T23:32:23.158Z,93.80
2019-01-15T23:35:03.213Z,93.90
2019-01-15T23:37:52.314Z,93.90
2019-01-15T23:40:25.857Z,94.30
2019-01-15T23:43:11.813Z,94.10
2019-01-15T23:45:46.056Z,94.20
2019-01-15T23:48:23.148Z,94.20
2019-01-15T23:51:00.155Z,94.20
2019-01-15T23:53:45.855Z,94.20
2019-01-15T23:56:33.457Z,94.20
2019-01-15T23:59:04.453Z,94.30
